Terminal Aerodrome Forecast
Issued by NWS

Home | Current Version | Previous Version | Graphics & Text | Print | Product List | Glossary On
Versions: 1 2 3 4 5 6 7 8 9 10 11 12 13
000
FTUS43 KFGF 211724
TAFBJI
TAF
KBJI 211724Z 2118/2218 27006KT P6SM SCT250
     FM212200 24007KT P6SM SCT250
     FM220600 18007KT P6SM SCT250 WS020/21040KT
     FM221000 19006KT P6SM FEW250
     FM221500 18010KT P6SM SKC=

USA.gov is the U.S. government's official web portal to all federal, state and local government web resources and services.